DAL099 NWWW-YPDN
Flight info
| Callsign | DAL099 |
|---|---|
| Flight time | 1h 54m |
| Altitude | 40000 |
| Route | TEPAM3E TEPAM G591 CS J61 DUMAV Q91 ALLEE Q23 VEGPU |
| Aircraft | A359/H-SDE2E3GHIJ3J4J5LM1ORWXY/LB1D1 |
Departure
| Time | 2026-04-22 19:46 |
|---|---|
| Airport | La Tontouta International Airport (NWWW) |
Arrival
| Time | 2026-04-22 21:40 |
|---|---|
| Airport | Darwin International Airport / RAAF Darwin (YPDN) |
| Time | Latitude | Longitude | Altitude | Speed | Heading |
|---|---|---|---|---|---|
| 2026-04-22 19:40 | -22.01267 | 166.21523 | 60 ft | 2 kts | 204° |
| 2026-04-22 19:41 | -22.01262 | 166.21526 | 57 ft | 0 kts | 208° |
| 2026-04-22 19:42 | -22.01301 | 166.21502 | 65 ft | 16 kts | 210° |
| 2026-04-22 19:42 | -22.01455 | 166.21396 | 62 ft | 32 kts | 226° |
| 2026-04-22 19:43 | -22.01337 | 166.21092 | 55 ft | 41 kts | 301° |
| 2026-04-22 19:43 | -22.01157 | 166.20773 | 56 ft | 58 kts | 301° |
| 2026-04-22 19:43 | -22.00927 | 166.20362 | 49 ft | 72 kts | 301° |
| 2026-04-22 19:44 | -22.00702 | 166.20011 | 46 ft | 18 kts | 327° |
| 2026-04-22 19:44 | -22.00696 | 166.19982 | 45 ft | 5 kts | 248° |
| 2026-04-22 19:44 | -22.00714 | 166.19986 | 45 ft | 5 kts | 131° |
| 2026-04-22 19:44 | -22.00756 | 166.20060 | 45 ft | 0 kts | 121° |
| 2026-04-22 19:45 | -22.00757 | 166.20061 | 45 ft | 3 kts | 121° |
| 2026-04-22 19:45 | -22.00845 | 166.20220 | 49 ft | 52 kts | 121° |
| 2026-04-22 19:45 | -22.01150 | 166.20760 | 53 ft | 115 kts | 121° |
| 2026-04-22 19:45 | -22.01660 | 166.21664 | 168 ft | 158 kts | 122° |
| 2026-04-22 19:46 | -22.02235 | 166.22671 | 870 ft | 156 kts | 122° |
| 2026-04-22 19:46 | -22.02819 | 166.23674 | 1337 ft | 164 kts | 122° |
| 2026-04-22 19:46 | -22.03459 | 166.24773 | 1519 ft | 182 kts | 122° |
| 2026-04-22 19:46 | -22.04378 | 166.25830 | 1707 ft | 209 kts | 148° |
| 2026-04-22 19:47 | -22.05872 | 166.26116 | 1928 ft | 238 kts | 189° |
| 2026-04-22 19:47 | -22.07354 | 166.25236 | 2421 ft | 255 kts | 226° |
| 2026-04-22 19:47 | -22.08119 | 166.23504 | 3111 ft | 264 kts | 261° |
| 2026-04-22 19:47 | -22.07859 | 166.21550 | 3804 ft | 270 kts | 295° |
| 2026-04-22 19:48 | -22.06642 | 166.20025 | 4525 ft | 272 kts | 326° |
| 2026-04-22 19:48 | -22.05059 | 166.18888 | 5255 ft | 275 kts | 325° |
| 2026-04-22 19:48 | -22.03558 | 166.17587 | 6024 ft | 278 kts | 317° |
| 2026-04-22 19:48 | -22.02187 | 166.16115 | 6879 ft | 277 kts | 312° |
| 2026-04-22 19:49 | -22.00916 | 166.14563 | 7737 ft | 276 kts | 309° |
| 2026-04-22 19:49 | -21.99714 | 166.12957 | 8610 ft | 276 kts | 305° |
| 2026-04-22 19:49 | -21.98887 | 166.11100 | 9406 ft | 277 kts | 285° |
| 2026-04-22 19:49 | -21.98441 | 166.09070 | 10182 ft | 280 kts | 281° |
| 2026-04-22 19:50 | -21.98049 | 166.06966 | 10614 ft | 296 kts | 281° |
| 2026-04-22 19:50 | -21.97633 | 166.04721 | 10908 ft | 315 kts | 281° |
| 2026-04-22 19:50 | -21.97187 | 166.02345 | 11190 ft | 333 kts | 281° |
| 2026-04-22 19:50 | -21.96713 | 165.99845 | 11495 ft | 348 kts | 282° |
| 2026-04-22 19:51 | -21.96220 | 165.97260 | 11993 ft | 355 kts | 282° |
| 2026-04-22 19:51 | -21.95720 | 165.94648 | 12636 ft | 357 kts | 282° |
| 2026-04-22 19:51 | -21.95218 | 165.92023 | 13292 ft | 359 kts | 282° |
| 2026-04-22 19:51 | -21.94712 | 165.89382 | 13930 ft | 361 kts | 282° |
| 2026-04-22 19:52 | -21.94205 | 165.86738 | 14491 ft | 362 kts | 282° |
| 2026-04-22 19:52 | -21.93695 | 165.84077 | 15076 ft | 363 kts | 282° |
| 2026-04-22 19:52 | -21.93182 | 165.81412 | 15606 ft | 364 kts | 282° |
| 2026-04-22 19:52 | -21.92667 | 165.78732 | 16160 ft | 366 kts | 282° |
| 2026-04-22 19:53 | -21.92149 | 165.76046 | 16723 ft | 367 kts | 283° |
| 2026-04-22 19:53 | -21.91642 | 165.73352 | 17255 ft | 368 kts | 282° |
| 2026-04-22 19:53 | -21.91146 | 165.70677 | 17776 ft | 370 kts | 283° |
| 2026-04-22 19:53 | -21.90640 | 165.67956 | 18299 ft | 371 kts | 283° |
| 2026-04-22 19:54 | -21.90130 | 165.65224 | 18746 ft | 373 kts | 283° |
| 2026-04-22 19:54 | -21.89616 | 165.62477 | 19167 ft | 376 kts | 283° |
| 2026-04-22 19:54 | -21.89098 | 165.59711 | 19606 ft | 378 kts | 283° |
| 2026-04-22 19:54 | -21.88576 | 165.56935 | 20056 ft | 379 kts | 283° |
| 2026-04-22 19:55 | -21.88051 | 165.54139 | 20507 ft | 382 kts | 282° |
| 2026-04-22 19:55 | -21.87522 | 165.51328 | 20954 ft | 384 kts | 282° |
| 2026-04-22 19:55 | -21.86990 | 165.48504 | 21420 ft | 386 kts | 282° |
| 2026-04-22 19:55 | -21.86454 | 165.45661 | 21885 ft | 388 kts | 282° |
| 2026-04-22 19:56 | -21.85916 | 165.42808 | 22333 ft | 391 kts | 282° |
| 2026-04-22 19:56 | -21.85373 | 165.39935 | 22795 ft | 393 kts | 282° |
| 2026-04-22 19:56 | -21.84827 | 165.37044 | 23274 ft | 395 kts | 282° |
| 2026-04-22 19:56 | -21.84276 | 165.34136 | 23726 ft | 397 kts | 282° |
| 2026-04-22 19:57 | -21.83723 | 165.31219 | 24150 ft | 399 kts | 282° |
| 2026-04-22 19:57 | -21.83167 | 165.28285 | 24613 ft | 400 kts | 282° |
| 2026-04-22 19:57 | -21.82610 | 165.25353 | 25099 ft | 401 kts | 282° |
| 2026-04-22 19:57 | -21.82051 | 165.22409 | 25589 ft | 402 kts | 282° |
| 2026-04-22 19:58 | -21.81489 | 165.19456 | 26076 ft | 404 kts | 282° |
| 2026-04-22 19:58 | -21.80924 | 165.16490 | 26562 ft | 405 kts | 282° |
| 2026-04-22 19:58 | -21.80357 | 165.13515 | 27051 ft | 406 kts | 282° |
| 2026-04-22 19:58 | -21.79789 | 165.10536 | 27527 ft | 408 kts | 282° |
| 2026-04-22 19:59 | -21.79216 | 165.07537 | 27987 ft | 410 kts | 282° |
| 2026-04-22 20:00 | -21.75725 | 164.89325 | 30462 ft | 421 kts | 282° |
| 2026-04-22 20:00 | -21.75130 | 164.86234 | 30767 ft | 423 kts | 282° |
| 2026-04-22 20:01 | -21.74534 | 164.83134 | 31083 ft | 424 kts | 282° |
| 2026-04-22 20:01 | -21.73933 | 164.80021 | 31397 ft | 426 kts | 282° |
| 2026-04-22 20:01 | -21.73330 | 164.76896 | 31688 ft | 427 kts | 282° |
| 2026-04-22 20:01 | -21.72725 | 164.73766 | 31969 ft | 429 kts | 282° |
| 2026-04-22 20:02 | -21.72116 | 164.70619 | 32266 ft | 430 kts | 282° |
| 2026-04-22 20:02 | -21.71509 | 164.67480 | 32696 ft | 428 kts | 282° |
| 2026-04-22 20:02 | -21.70904 | 164.64358 | 33145 ft | 425 kts | 282° |
| 2026-04-22 20:02 | -21.70301 | 164.61250 | 33573 ft | 423 kts | 282° |
| 2026-04-22 20:03 | -21.69701 | 164.58161 | 33964 ft | 422 kts | 282° |
| 2026-04-22 20:03 | -21.69101 | 164.55074 | 34324 ft | 421 kts | 282° |
| 2026-04-22 20:03 | -21.68503 | 164.52006 | 34660 ft | 419 kts | 283° |
| 2026-04-22 20:03 | -21.67906 | 164.48939 | 34977 ft | 418 kts | 283° |
| 2026-04-22 20:04 | -21.67311 | 164.45889 | 35286 ft | 417 kts | 283° |
| 2026-04-22 20:04 | -21.66716 | 164.42840 | 35601 ft | 416 kts | 283° |
| 2026-04-22 20:04 | -21.66123 | 164.39807 | 35916 ft | 415 kts | 283° |
| 2026-04-22 20:04 | -21.65530 | 164.36776 | 36224 ft | 414 kts | 283° |
| 2026-04-22 20:05 | -21.64939 | 164.33757 | 36520 ft | 413 kts | 283° |
| 2026-04-22 20:05 | -21.64347 | 164.30735 | 36811 ft | 412 kts | 283° |
| 2026-04-22 20:05 | -21.63755 | 164.27722 | 37034 ft | 412 kts | 283° |
| 2026-04-22 20:06 | -21.62572 | 164.21702 | 37084 ft | 411 kts | 283° |
| 2026-04-22 20:06 | -21.61387 | 164.15684 | 37079 ft | 411 kts | 283° |
| 2026-04-22 20:07 | -21.60200 | 164.09666 | 37079 ft | 412 kts | 283° |
| 2026-04-22 20:07 | -21.59009 | 164.03674 | 37070 ft | 412 kts | 283° |
| 2026-04-22 20:08 | -21.57808 | 163.97660 | 37074 ft | 412 kts | 283° |
| 2026-04-22 20:08 | -21.56604 | 163.91642 | 37072 ft | 412 kts | 283° |
| 2026-04-22 20:09 | -21.52779 | 163.72579 | 37081 ft | 412 kts | 283° |
| 2026-04-22 20:09 | -21.47947 | 163.48665 | 37073 ft | 412 kts | 283° |
| 2026-04-22 20:09 | -21.45458 | 163.36428 | 37069 ft | 426 kts | 283° |
| 2026-04-22 20:10 | -21.42917 | 163.23970 | 37075 ft | 427 kts | 283° |
| 2026-04-22 20:10 | -21.37861 | 162.99334 | 37085 ft | 427 kts | 283° |
| 2026-04-22 20:11 | -21.32682 | 162.74445 | 37064 ft | 428 kts | 283° |
| 2026-04-22 20:11 | -21.27458 | 162.49533 | 37080 ft | 428 kts | 283° |
| 2026-04-22 20:12 | -21.22196 | 162.24631 | 37078 ft | 428 kts | 283° |
| 2026-04-22 20:12 | -21.17768 | 162.03824 | 37077 ft | 428 kts | 283° |
| 2026-04-22 20:13 | -21.11578 | 161.74952 | 37078 ft | 428 kts | 283° |
| 2026-04-22 20:13 | -21.06215 | 161.50141 | 37079 ft | 428 kts | 283° |
| 2026-04-22 20:14 | -21.01729 | 161.29528 | 37080 ft | 428 kts | 283° |
| 2026-04-22 20:14 | -20.96294 | 161.04720 | 37077 ft | 428 kts | 284° |
| 2026-04-22 20:15 | -20.90824 | 160.79936 | 37076 ft | 428 kts | 284° |
| 2026-04-22 20:15 | -20.85315 | 160.55155 | 37076 ft | 429 kts | 284° |
| 2026-04-22 20:16 | -20.79763 | 160.30361 | 37082 ft | 429 kts | 284° |
| 2026-04-22 20:16 | -20.74173 | 160.05571 | 37077 ft | 429 kts | 284° |
| 2026-04-22 20:17 | -20.68552 | 159.80823 | 37079 ft | 429 kts | 284° |
| 2026-04-22 20:17 | -20.62887 | 159.56052 | 37081 ft | 430 kts | 284° |
| 2026-04-22 20:18 | -20.57174 | 159.31248 | 37078 ft | 430 kts | 284° |
| 2026-04-22 20:18 | -20.51430 | 159.06479 | 37077 ft | 430 kts | 284° |
| 2026-04-22 20:19 | -20.45654 | 158.81741 | 37082 ft | 430 kts | 284° |
| 2026-04-22 20:19 | -20.39838 | 158.57002 | 37082 ft | 430 kts | 284° |
| 2026-04-22 20:20 | -20.33988 | 158.32286 | 37082 ft | 430 kts | 284° |
| 2026-04-22 20:20 | -20.28096 | 158.07556 | 37076 ft | 431 kts | 284° |
| 2026-04-22 20:21 | -20.22163 | 157.82822 | 37078 ft | 431 kts | 284° |
| 2026-04-22 20:21 | -20.16201 | 157.58125 | 37072 ft | 431 kts | 284° |
| 2026-04-22 20:22 | -20.10195 | 157.33412 | 37076 ft | 431 kts | 284° |
| 2026-04-22 20:22 | -20.04196 | 157.08883 | 37071 ft | 431 kts | 284° |
| 2026-04-22 20:23 | -19.98126 | 156.84225 | 37073 ft | 431 kts | 284° |
| 2026-04-22 20:23 | -19.92016 | 156.59564 | 37079 ft | 431 kts | 284° |
| 2026-04-22 20:24 | -19.85870 | 156.34908 | 37077 ft | 431 kts | 284° |
| 2026-04-22 20:24 | -19.79694 | 156.10307 | 37074 ft | 431 kts | 284° |
| 2026-04-22 20:25 | -19.73476 | 155.85702 | 37074 ft | 431 kts | 284° |
| 2026-04-22 20:25 | -19.67219 | 155.61097 | 37077 ft | 431 kts | 284° |
| 2026-04-22 20:26 | -19.60934 | 155.36533 | 37072 ft | 432 kts | 284° |
| 2026-04-22 20:26 | -19.54605 | 155.11947 | 37078 ft | 432 kts | 284° |
| 2026-04-22 20:27 | -19.48239 | 154.87367 | 37077 ft | 433 kts | 284° |
| 2026-04-22 20:27 | -19.41827 | 154.62755 | 37079 ft | 433 kts | 284° |
| 2026-04-22 20:28 | -19.35374 | 154.38132 | 37075 ft | 434 kts | 284° |
| 2026-04-22 20:28 | -19.28874 | 154.13478 | 37074 ft | 435 kts | 284° |
| 2026-04-22 20:29 | -19.22335 | 153.88820 | 37066 ft | 435 kts | 284° |
| 2026-04-22 20:29 | -19.15758 | 153.64164 | 37070 ft | 436 kts | 284° |
| 2026-04-22 20:30 | -19.09144 | 153.39513 | 37071 ft | 436 kts | 284° |
| 2026-04-22 20:30 | -19.02492 | 153.14861 | 37071 ft | 436 kts | 284° |
| 2026-04-22 20:31 | -18.95812 | 152.90245 | 37073 ft | 436 kts | 284° |
| 2026-04-22 20:31 | -18.89145 | 152.65815 | 37073 ft | 436 kts | 284° |
| 2026-04-22 20:32 | -18.82360 | 152.41093 | 37069 ft | 436 kts | 284° |
| 2026-04-22 20:32 | -18.75616 | 152.16655 | 37068 ft | 437 kts | 284° |
| 2026-04-22 20:33 | -18.68798 | 151.92084 | 37072 ft | 437 kts | 284° |
| 2026-04-22 20:33 | -18.61940 | 151.67505 | 37070 ft | 437 kts | 284° |
| 2026-04-22 20:34 | -18.55046 | 151.42934 | 37064 ft | 437 kts | 284° |
| 2026-04-22 20:34 | -18.48117 | 151.18367 | 37079 ft | 437 kts | 284° |
| 2026-04-22 20:35 | -18.41145 | 150.93780 | 37048 ft | 438 kts | 284° |
| 2026-04-22 20:35 | -18.34143 | 150.69223 | 37057 ft | 438 kts | 284° |
| 2026-04-22 20:36 | -18.27096 | 150.44637 | 37059 ft | 439 kts | 284° |
| 2026-04-22 20:36 | -18.20010 | 150.20043 | 37057 ft | 440 kts | 284° |
| 2026-04-22 20:37 | -18.12877 | 149.95434 | 37053 ft | 440 kts | 284° |
| 2026-04-22 20:37 | -18.05690 | 149.70801 | 37053 ft | 441 kts | 284° |
| 2026-04-22 20:38 | -17.98458 | 149.46142 | 37052 ft | 442 kts | 284° |
| 2026-04-22 20:38 | -17.91198 | 149.21510 | 37054 ft | 442 kts | 284° |
| 2026-04-22 20:39 | -17.83888 | 148.96834 | 37052 ft | 443 kts | 284° |
| 2026-04-22 20:39 | -17.76536 | 148.72144 | 37052 ft | 444 kts | 284° |
| 2026-04-22 20:40 | -17.69136 | 148.47417 | 37054 ft | 444 kts | 284° |
| 2026-04-22 20:40 | -17.61702 | 148.22701 | 37048 ft | 445 kts | 284° |
| 2026-04-22 20:41 | -17.54223 | 147.97956 | 37045 ft | 445 kts | 284° |
| 2026-04-22 20:41 | -17.46699 | 147.73185 | 37034 ft | 446 kts | 284° |
| 2026-04-22 20:42 | -17.39144 | 147.48436 | 37035 ft | 447 kts | 284° |
| 2026-04-22 20:42 | -17.31539 | 147.23642 | 37044 ft | 448 kts | 284° |
| 2026-04-22 20:43 | -17.23935 | 146.98967 | 37045 ft | 449 kts | 284° |
| 2026-04-22 20:43 | -17.16189 | 146.73955 | 37045 ft | 450 kts | 285° |
| 2026-04-22 20:44 | -17.08448 | 146.49079 | 37046 ft | 450 kts | 285° |
| 2026-04-22 20:44 | -17.00675 | 146.24208 | 37050 ft | 451 kts | 285° |
| 2026-04-22 20:45 | -16.92849 | 145.99278 | 37044 ft | 452 kts | 285° |
| 2026-04-22 20:45 | -16.85023 | 145.74467 | 37049 ft | 453 kts | 285° |
| 2026-04-22 20:46 | -16.75148 | 145.36525 | 37066 ft | 453 kts | 282° |
| 2026-04-22 20:46 | -16.68482 | 145.11090 | 37066 ft | 454 kts | 282° |
| 2026-04-22 20:47 | -16.61784 | 144.85679 | 37058 ft | 455 kts | 282° |
| 2026-04-22 20:47 | -16.55061 | 144.60241 | 37048 ft | 456 kts | 282° |
| 2026-04-22 20:48 | -16.48285 | 144.34767 | 37041 ft | 457 kts | 282° |
| 2026-04-22 20:48 | -16.41460 | 144.09244 | 37036 ft | 457 kts | 283° |
| 2026-04-22 20:49 | -16.34595 | 143.83707 | 37029 ft | 459 kts | 283° |
| 2026-04-22 20:49 | -16.27684 | 143.58130 | 37028 ft | 459 kts | 283° |
| 2026-04-22 20:50 | -16.20728 | 143.32515 | 37029 ft | 460 kts | 283° |
| 2026-04-22 20:50 | -16.13717 | 143.06830 | 37023 ft | 461 kts | 283° |
| 2026-04-22 20:51 | -16.06668 | 142.81149 | 37024 ft | 462 kts | 283° |
| 2026-04-22 20:51 | -15.99623 | 142.55609 | 37021 ft | 463 kts | 283° |
| 2026-04-22 20:52 | -15.92477 | 142.29829 | 37019 ft | 464 kts | 283° |
| 2026-04-22 20:52 | -15.85293 | 142.04040 | 37017 ft | 465 kts | 283° |
| 2026-04-22 20:53 | -15.78068 | 141.78270 | 37008 ft | 466 kts | 283° |
| 2026-04-22 20:53 | -15.70784 | 141.52418 | 37011 ft | 467 kts | 283° |
| 2026-04-22 20:54 | -15.63447 | 141.26516 | 37009 ft | 468 kts | 283° |
| 2026-04-22 20:54 | -15.56063 | 141.00573 | 36997 ft | 469 kts | 283° |
| 2026-04-22 20:55 | -15.48633 | 140.74597 | 36999 ft | 471 kts | 283° |
| 2026-04-22 20:55 | -15.41150 | 140.48556 | 36988 ft | 472 kts | 283° |
| 2026-04-22 20:56 | -15.33616 | 140.22467 | 36990 ft | 473 kts | 283° |
| 2026-04-22 20:56 | -15.26022 | 139.96295 | 36987 ft | 474 kts | 283° |
| 2026-04-22 20:57 | -15.18395 | 139.70132 | 36983 ft | 475 kts | 283° |
| 2026-04-22 20:57 | -15.10721 | 139.43930 | 36982 ft | 476 kts | 283° |
| 2026-04-22 20:58 | -15.03001 | 139.17690 | 36988 ft | 477 kts | 284° |
| 2026-04-22 20:58 | -14.95235 | 138.91418 | 36982 ft | 478 kts | 284° |
| 2026-04-22 20:59 | -14.87404 | 138.65055 | 36981 ft | 480 kts | 284° |
| 2026-04-22 20:59 | -14.79516 | 138.38624 | 36977 ft | 482 kts | 284° |
| 2026-04-22 21:00 | -14.71573 | 138.12128 | 36974 ft | 483 kts | 284° |
| 2026-04-22 21:00 | -14.64937 | 137.90081 | 36972 ft | 484 kts | 284° |
| 2026-04-22 21:01 | -14.56893 | 137.63468 | 36963 ft | 486 kts | 284° |
| 2026-04-22 21:01 | -14.48798 | 137.36806 | 36962 ft | 487 kts | 285° |
| 2026-04-22 21:02 | -14.40653 | 137.10098 | 36959 ft | 489 kts | 285° |
| 2026-04-22 21:02 | -14.32449 | 136.83314 | 36963 ft | 490 kts | 285° |
| 2026-04-22 21:03 | -14.24195 | 136.56485 | 36959 ft | 491 kts | 285° |
| 2026-04-22 21:03 | -14.15901 | 136.29644 | 36964 ft | 492 kts | 285° |
| 2026-04-22 21:04 | -14.07568 | 136.02792 | 36964 ft | 492 kts | 285° |
| 2026-04-22 21:04 | -13.99186 | 135.75897 | 36965 ft | 492 kts | 286° |
| 2026-04-22 21:05 | -13.91922 | 135.48974 | 36971 ft | 491 kts | 280° |
| 2026-04-22 21:05 | -13.86364 | 135.21313 | 36977 ft | 490 kts | 280° |
| 2026-04-22 21:06 | -13.80775 | 134.93814 | 36984 ft | 491 kts | 280° |
| 2026-04-22 21:06 | -13.75196 | 134.66520 | 36982 ft | 491 kts | 281° |
| 2026-04-22 21:07 | -13.69538 | 134.39004 | 36980 ft | 492 kts | 281° |
| 2026-04-22 21:07 | -13.63765 | 134.11551 | 36989 ft | 491 kts | 281° |
| 2026-04-22 21:08 | -13.57928 | 133.84095 | 36995 ft | 491 kts | 281° |
| 2026-04-22 21:08 | -13.52061 | 133.56697 | 36995 ft | 491 kts | 281° |
| 2026-04-22 21:09 | -13.46342 | 133.30144 | 36997 ft | 491 kts | 282° |
| 2026-04-22 21:09 | -13.45044 | 133.23313 | 36995 ft | 490 kts | 276° |
| 2026-04-22 21:10 | -13.44304 | 133.16362 | 36994 ft | 490 kts | 275° |
| 2026-04-22 21:10 | -13.43659 | 133.09395 | 36994 ft | 490 kts | 275° |
| 2026-04-22 21:11 | -13.43020 | 133.02423 | 36990 ft | 490 kts | 275° |
| 2026-04-22 21:11 | -13.42371 | 132.95454 | 36988 ft | 490 kts | 275° |
| 2026-04-22 21:12 | -13.41714 | 132.88483 | 36987 ft | 491 kts | 275° |
| 2026-04-22 21:12 | -13.41052 | 132.81509 | 36983 ft | 491 kts | 275° |
| 2026-04-22 21:13 | -13.40388 | 132.74524 | 36980 ft | 491 kts | 275° |
| 2026-04-22 21:13 | -13.39723 | 132.67542 | 36982 ft | 492 kts | 275° |
| 2026-04-22 21:14 | -13.39055 | 132.60551 | 36981 ft | 492 kts | 275° |
| 2026-04-22 21:14 | -13.38385 | 132.53555 | 36974 ft | 492 kts | 275° |
| 2026-04-22 21:15 | -13.37712 | 132.46558 | 36977 ft | 492 kts | 275° |
| 2026-04-22 21:15 | -13.37037 | 132.39556 | 36977 ft | 493 kts | 275° |
| 2026-04-22 21:16 | -13.36360 | 132.32553 | 36977 ft | 493 kts | 275° |
| 2026-04-22 21:16 | -13.35681 | 132.25547 | 36975 ft | 493 kts | 275° |
| 2026-04-22 21:17 | -13.34999 | 132.18533 | 36971 ft | 494 kts | 275° |
| 2026-04-22 21:17 | -13.34320 | 132.11564 | 36965 ft | 494 kts | 275° |
| 2026-04-22 21:18 | -13.33633 | 132.04545 | 36972 ft | 494 kts | 275° |
| 2026-04-22 21:18 | -13.32945 | 131.97526 | 36969 ft | 494 kts | 275° |
| 2026-04-22 21:19 | -13.31318 | 131.90722 | 36969 ft | 489 kts | 295° |
| 2026-04-22 21:19 | -13.27777 | 131.84834 | 36970 ft | 483 kts | 303° |
| 2026-04-22 21:20 | -13.23876 | 131.79218 | 36971 ft | 483 kts | 305° |
| 2026-04-22 21:20 | -13.21912 | 131.76437 | 36850 ft | 478 kts | 304° |
| 2026-04-22 21:20 | -13.19967 | 131.73676 | 36193 ft | 477 kts | 304° |
| 2026-04-22 21:21 | -13.18027 | 131.70902 | 35370 ft | 480 kts | 304° |
| 2026-04-22 21:21 | -13.16084 | 131.68107 | 34590 ft | 483 kts | 304° |
| 2026-04-22 21:21 | -13.14131 | 131.65289 | 33750 ft | 486 kts | 304° |
| 2026-04-22 21:21 | -13.12168 | 131.62452 | 32819 ft | 489 kts | 304° |
| 2026-04-22 21:22 | -13.10192 | 131.59593 | 31848 ft | 493 kts | 304° |
| 2026-04-22 21:22 | -13.08206 | 131.56723 | 30918 ft | 496 kts | 304° |
| 2026-04-22 21:22 | -13.06202 | 131.53827 | 29965 ft | 499 kts | 304° |
| 2026-04-22 21:22 | -13.04140 | 131.50951 | 28911 ft | 502 kts | 309° |
| 2026-04-22 21:23 | -13.01629 | 131.48488 | 28062 ft | 502 kts | 321° |
| 2026-04-22 21:23 | -12.98809 | 131.46387 | 27313 ft | 499 kts | 324° |
| 2026-04-22 21:23 | -12.95963 | 131.44371 | 26605 ft | 494 kts | 324° |
| 2026-04-22 21:23 | -12.93137 | 131.42390 | 25923 ft | 490 kts | 324° |
| 2026-04-22 21:24 | -12.90333 | 131.40432 | 25235 ft | 486 kts | 325° |
| 2026-04-22 21:24 | -12.87572 | 131.38507 | 24406 ft | 469 kts | 325° |
| 2026-04-22 21:24 | -12.84916 | 131.36658 | 22985 ft | 457 kts | 325° |
| 2026-04-22 21:24 | -12.82324 | 131.34852 | 21089 ft | 457 kts | 326° |
| 2026-04-22 21:25 | -12.79713 | 131.33033 | 19515 ft | 450 kts | 326° |
| 2026-04-22 21:25 | -12.77160 | 131.31257 | 18052 ft | 439 kts | 327° |
| 2026-04-22 21:25 | -12.74661 | 131.29521 | 16479 ft | 429 kts | 327° |
| 2026-04-22 21:25 | -12.72225 | 131.27831 | 15022 ft | 417 kts | 326° |
| 2026-04-22 21:26 | -12.69816 | 131.26160 | 13861 ft | 422 kts | 326° |
| 2026-04-22 21:26 | -12.67398 | 131.24482 | 13247 ft | 414 kts | 326° |
| 2026-04-22 21:26 | -12.65048 | 131.22852 | 12650 ft | 404 kts | 326° |
| 2026-04-22 21:26 | -12.62756 | 131.21204 | 11918 ft | 401 kts | 322° |
| 2026-04-22 21:27 | -12.60865 | 131.19136 | 11194 ft | 398 kts | 304° |
| 2026-04-22 21:27 | -12.59717 | 131.16595 | 10762 ft | 388 kts | 289° |
| 2026-04-22 21:27 | -12.58874 | 131.14027 | 10485 ft | 373 kts | 288° |
| 2026-04-22 21:27 | -12.58077 | 131.11559 | 10243 ft | 359 kts | 289° |
| 2026-04-22 21:28 | -12.57301 | 131.09180 | 10026 ft | 345 kts | 289° |
| 2026-04-22 21:28 | -12.56556 | 131.06912 | 9783 ft | 325 kts | 289° |
| 2026-04-22 21:28 | -12.55855 | 131.04788 | 9180 ft | 308 kts | 289° |
| 2026-04-22 21:28 | -12.55171 | 131.02720 | 8327 ft | 305 kts | 289° |
| 2026-04-22 21:29 | -12.54489 | 131.00667 | 7466 ft | 304 kts | 289° |
| 2026-04-22 21:29 | -12.53802 | 130.98599 | 6872 ft | 309 kts | 289° |
| 2026-04-22 21:29 | -12.53113 | 130.96528 | 6511 ft | 306 kts | 289° |
| 2026-04-22 21:29 | -12.52431 | 130.94480 | 6150 ft | 303 kts | 289° |
| 2026-04-22 21:30 | -12.51753 | 130.92448 | 6011 ft | 302 kts | 289° |
| 2026-04-22 21:30 | -12.51074 | 130.90409 | 5985 ft | 302 kts | 289° |
| 2026-04-22 21:30 | -12.50508 | 130.88707 | 5990 ft | 302 kts | 289° |
| 2026-04-22 21:30 | -12.49843 | 130.86713 | 5991 ft | 302 kts | 289° |
| 2026-04-22 21:31 | -12.49167 | 130.84683 | 5991 ft | 302 kts | 289° |
| 2026-04-22 21:31 | -12.48484 | 130.82650 | 5992 ft | 302 kts | 290° |
| 2026-04-22 21:31 | -12.47800 | 130.80623 | 5993 ft | 302 kts | 290° |
| 2026-04-22 21:31 | -12.47117 | 130.78599 | 5849 ft | 298 kts | 290° |
| 2026-04-22 21:32 | -12.46441 | 130.76592 | 5377 ft | 300 kts | 290° |
| 2026-04-22 21:32 | -12.45760 | 130.74571 | 4944 ft | 301 kts | 290° |
| 2026-04-22 21:32 | -12.45083 | 130.72561 | 4669 ft | 295 kts | 290° |
| 2026-04-22 21:32 | -12.44427 | 130.70615 | 4488 ft | 285 kts | 290° |
| 2026-04-22 21:33 | -12.43787 | 130.68716 | 4217 ft | 280 kts | 290° |
| 2026-04-22 21:33 | -12.43040 | 130.66891 | 3871 ft | 277 kts | 304° |
| 2026-04-22 21:33 | -12.41673 | 130.65601 | 3501 ft | 264 kts | 340° |
| 2026-04-22 21:33 | -12.39954 | 130.65314 | 3153 ft | 244 kts | 16° |
| 2026-04-22 21:34 | -12.38379 | 130.65776 | 3016 ft | 228 kts | 27° |
| 2026-04-22 21:34 | -12.36955 | 130.66300 | 2999 ft | 213 kts | 27° |
| 2026-04-22 21:34 | -12.35643 | 130.66847 | 2994 ft | 193 kts | 37° |
| 2026-04-22 21:34 | -12.34736 | 130.67704 | 3003 ft | 166 kts | 64° |
| 2026-04-22 21:35 | -12.34413 | 130.68737 | 3023 ft | 145 kts | 86° |
| 2026-04-22 21:35 | -12.34558 | 130.69742 | 3014 ft | 145 kts | 107° |
| 2026-04-22 21:35 | -12.35114 | 130.70621 | 3008 ft | 150 kts | 126° |
| 2026-04-22 21:35 | -12.35758 | 130.71442 | 3000 ft | 142 kts | 115° |
| 2026-04-22 21:36 | -12.36133 | 130.72297 | 3008 ft | 124 kts | 105° |
| 2026-04-22 21:36 | -12.36435 | 130.73091 | 3010 ft | 117 kts | 106° |
| 2026-04-22 21:36 | -12.36702 | 130.73876 | 3002 ft | 117 kts | 104° |
| 2026-04-22 21:36 | -12.36960 | 130.74672 | 2998 ft | 119 kts | 105° |
| 2026-04-22 21:37 | -12.37231 | 130.75479 | 2996 ft | 120 kts | 106° |
| 2026-04-22 21:37 | -12.37517 | 130.76301 | 2974 ft | 122 kts | 107° |
| 2026-04-22 21:37 | -12.37810 | 130.77123 | 2850 ft | 124 kts | 107° |
| 2026-04-22 21:37 | -12.38113 | 130.77953 | 2745 ft | 125 kts | 108° |
| 2026-04-22 21:38 | -12.38426 | 130.78824 | 2313 ft | 136 kts | 106° |
| 2026-04-22 21:38 | -12.38727 | 130.79764 | 1911 ft | 142 kts | 105° |
| 2026-04-22 21:38 | -12.39008 | 130.80744 | 1587 ft | 145 kts | 105° |
| 2026-04-22 21:38 | -12.39310 | 130.81720 | 1313 ft | 144 kts | 107° |
| 2026-04-22 21:39 | -12.39630 | 130.82657 | 1048 ft | 140 kts | 108° |
| 2026-04-22 21:39 | -12.39962 | 130.83598 | 793 ft | 140 kts | 110° |
| 2026-04-22 21:39 | -12.40194 | 130.84319 | 667 ft | 140 kts | 108° |
| 2026-04-22 21:39 | -12.40416 | 130.85022 | 550 ft | 139 kts | 108° |
| 2026-04-22 21:40 | -12.40730 | 130.85951 | 330 ft | 137 kts | 109° |
| 2026-04-22 21:40 | -12.41049 | 130.86842 | 112 ft | 129 kts | 110° |
| 2026-04-22 21:40 | -12.41310 | 130.87628 | 98 ft | 107 kts | 109° |
| 2026-04-22 21:40 | -12.41486 | 130.88152 | 94 ft | 40 kts | 109° |
| 2026-04-22 21:41 | -12.41577 | 130.88403 | 95 ft | 30 kts | 127° |
| 2026-04-22 21:41 | -12.41775 | 130.88395 | 99 ft | 34 kts | 210° |
| 2026-04-22 21:41 | -12.41788 | 130.88200 | 98 ft | 35 kts | 291° |
| 2026-04-22 21:41 | -12.41689 | 130.87958 | 96 ft | 22 kts | 318° |
| 2026-04-22 21:42 | -12.41509 | 130.87956 | 99 ft | 35 kts | 19° |
| 2026-04-22 21:42 | -12.41221 | 130.88058 | 99 ft | 52 kts | 18° |
| 2026-04-22 21:42 | -12.41065 | 130.88081 | 97 ft | 6 kts | 321° |
| 2026-04-22 21:42 | -12.41024 | 130.87986 | 98 ft | 26 kts | 291° |
| 2026-04-22 21:43 | -12.40961 | 130.87745 | 97 ft | 33 kts | 280° |
| 2026-04-22 21:43 | -12.40937 | 130.87624 | 99 ft | 6 kts | 294° |
| 2026-04-22 21:43 | -12.40910 | 130.87594 | 97 ft | 2 kts | 1° |
| 2026-04-22 21:43 | -12.40869 | 130.87612 | 98 ft | 7 kts | 20° |
| 2026-04-22 21:44 | -12.40853 | 130.87618 | 98 ft | 2 kts | 20° |
| 2026-04-22 21:44 | -12.40852 | 130.87618 | 98 ft | 0 kts | 20° |